Time;durP1;ratioP1;P1;durP2;ratioP2;P2;SDS_P1;SDS_P2;PMS_P1;PMS_P2;Temp;Humidity;BMP_temperature;BMP_pressure;BME280_temperature;BME280_humidity;BME280_pressure;Samples;Min_cycle;Max_cycle;Signal;HPM_P1;HPM_P2
2022/08/05 00:00:11;;;;;;;0.00;0.00;;;;;;;18.41;100.00;101414.25;4944089;28;20038;-72
2022/08/05 00:02:37;;;;;;;0.00;0.00;;;;;;;18.57;100.00;101433.44;4940164;28;20032;-72
2022/08/05 00:05:03;;;;;;;0.00;0.00;;;;;;;18.63;100.00;101434.66;4938434;28;20027;-72
2022/08/05 00:07:28;;;;;;;0.00;0.00;;;;;;;18.62;100.00;101430.22;4949046;28;20148;-71
2022/08/05 00:09:53;;;;;;;0.00;0.00;;;;;;;18.58;100.00;101426.09;4956034;28;20480;-72
2022/08/05 00:12:19;;;;;;;0.00;0.00;;;;;;;18.55;100.00;101419.13;4960822;28;20180;-72
2022/08/05 00:14:44;;;;;;;0.00;0.00;;;;;;;18.50;100.00;101404.31;4937171;28;20459;-72
2022/08/05 00:17:09;;;;;;;0.00;0.00;;;;;;;18.65;100.00;101418.19;4941447;28;20505;-71
2022/08/05 00:19:35;;;;;;;0.00;0.00;;;;;;;18.51;100.00;101406.84;4936921;28;20043;-71
2022/08/05 00:22:01;;;;;;;0.00;0.00;;;;;;;18.62;100.00;101418.50;4943317;28;20114;-71
2022/08/05 00:24:26;;;;;;;0.00;0.00;;;;;;;18.66;100.00;101417.19;4942278;28;20027;-69
2022/08/05 00:26:52;;;;;;;0.00;0.00;;;;;;;18.46;100.00;101381.16;4938129;28;20054;-69
2022/08/05 00:29:17;;;;;;;0.00;0.00;;;;;;;18.72;100.00;101409.22;4936512;28;20074;-68
2022/08/05 00:31:43;;;;;;;0.00;0.00;;;;;;;18.77;100.00;101406.03;4939158;28;20058;-68
2022/08/05 00:34:08;;;;;;;0.05;0.05;;;;;;;18.77;100.00;101405.19;4944377;28;20039;-68
2022/08/05 00:36:33;;;;;;;0.00;0.00;;;;;;;18.80;100.00;101413.88;4950426;28;20039;-68
2022/08/05 00:38:59;;;;;;;0.00;0.00;;;;;;;18.85;100.00;101425.13;4933087;28;20091;-68
2022/08/05 00:41:29;;;;;;;0.00;0.00;;;;;;;18.71;100.00;101404.81;4933924;28;20441;-68
2022/08/05 00:43:54;;;;;;;0.00;0.00;;;;;;;18.85;100.00;101416.09;4933871;28;20055;-68
2022/08/05 00:46:19;;;;;;;0.00;0.00;;;;;;;18.89;100.00;101415.63;4936579;28;20030;-68
2022/08/05 00:48:45;;;;;;;0.00;0.00;;;;;;;18.90;100.00;101416.47;4940054;28;20038;-68
2022/08/05 00:51:10;;;;;;;0.00;0.00;;;;;;;18.94;100.00;101412.41;4934585;28;20078;-68
2022/08/05 00:53:35;;;;;;;0.00;0.00;;;;;;;18.99;100.00;101417.41;4937400;28;20031;-71
2022/08/05 00:56:01;;;;;;;0.00;0.00;;;;;;;18.98;100.00;101418.41;4937535;28;20468;-71
2022/08/05 00:58:26;;;;;;;0.00;0.00;;;;;;;19.01;100.00;101424.41;4940315;28;20463;-71
2022/08/05 01:00:51;;;;;;;0.00;0.00;;;;;;;19.06;100.00;101423.91;4940681;28;20031;-71
2022/08/05 01:03:17;;;;;;;0.00;0.00;;;;;;;18.88;100.00;101399.44;4943285;28;20024;-71
2022/08/05 01:05:42;;;;;;;0.00;0.00;;;;;;;18.98;100.00;101423.84;4933900;28;20035;-71
2022/08/05 01:08:07;;;;;;;0.00;0.00;;;;;;;18.90;100.00;101419.19;4936698;28;20046;-71
2022/08/05 01:10:40;;;;;;;0.00;0.00;;;;;;;18.89;100.00;101431.09;4935212;28;20090;-71
2022/08/05 01:13:32;;;;;;;0.00;0.00;;;;;;;18.72;100.00;101416.53;4935616;28;20454;-68
2022/08/05 01:15:59;;;;;;;0.05;0.00;;;;;;;18.81;100.00;101417.41;4929998;28;20109;-68
2022/08/05 01:18:30;;;;;;;0.00;0.00;;;;;;;18.78;100.00;101412.31;4926091;28;20022;-68
2022/08/05 01:21:14;;;;;;;0.00;0.00;;;;;;;18.76;100.00;101423.34;4931155;28;20032;-68
2022/08/05 01:23:56;;;;;;;0.00;0.00;;;;;;;18.71;100.00;101421.13;4934824;28;20471;-68
2022/08/05 01:26:34;;;;;;;0.00;0.00;;;;;;;18.70;100.00;101421.25;4939341;28;20045;-68
2022/08/05 01:29:03;;;;;;;0.00;0.00;;;;;;;18.69;100.00;101431.31;4932279;28;21502;-68
2022/08/05 01:31:38;;;;;;;0.00;0.00;;;;;;;18.66;100.00;101438.94;4938230;28;20059;-68
2022/08/05 01:34:07;;;;;;;0.00;0.00;;;;;;;18.66;100.00;101442.50;4932285;28;20072;-68
2022/08/05 01:36:37;;;;;;;0.00;0.00;;;;;;;18.61;100.00;101444.00;4937185;28;20026;-68
2022/08/05 01:39:03;;;;;;;0.00;0.00;;;;;;;18.62;100.00;101446.53;4936515;28;20031;-68
2022/08/05 01:41:32;;;;;;;0.00;0.00;;;;;;;18.54;100.00;101463.66;4935716;28;20475;-68
2022/08/05 01:43:58;;;;;;;0.00;0.00;;;;;;;18.57;100.00;101473.34;4935987;28;20027;-68
2022/08/05 01:46:23;;;;;;;0.00;0.00;;;;;;;18.58;100.00;101485.94;4932195;28;20034;-68
2022/08/05 01:48:49;;;;;;;0.00;0.00;;;;;;;18.44;100.00;101469.16;4939629;28;20032;-68
2022/08/05 01:51:16;;;;;;;0.00;0.00;;;;;;;18.57;100.00;101484.22;4931633;28;20530;-68
2022/08/05 01:53:42;;;;;;;0.00;0.00;;;;;;;18.58;100.00;101484.09;4929298;28;20456;-68
2022/08/05 01:56:08;;;;;;;0.00;0.00;;;;;;;18.52;100.00;101476.53;4932126;28;20566;-68
2022/08/05 01:58:34;;;;;;;0.00;0.00;;;;;;;18.52;100.00;101472.97;4934629;28;20038;-68
2022/08/05 02:01:01;;;;;;;0.00;0.00;;;;;;;18.53;100.00;101466.53;4930511;28;20505;-68
2022/08/05 02:03:37;;;;;;;0.00;0.00;;;;;;;18.35;100.00;101451.06;4930096;28;20034;-68
2022/08/05 02:06:04;;;;;;;0.00;0.00;;;;;;;18.32;100.00;101462.25;4931905;28;20026;-68
2022/08/05 02:08:33;;;;;;;0.00;0.00;;;;;;;18.44;100.00;101481.91;4934665;28;20067;-68
2022/08/05 02:11:06;;;;;;;0.00;0.00;;;;;;;18.40;100.00;101483.25;4937206;28;20038;-68
2022/08/05 02:13:45;;;;;;;0.00;0.00;;;;;;;18.43;100.00;101491.06;4932762;28;20090;-68
2022/08/05 02:16:14;;;;;;;0.00;0.00;;;;;;;18.38;100.00;101487.97;4931757;28;20034;-68
2022/08/05 02:18:42;;;;;;;0.00;0.00;;;;;;;18.35;100.00;101489.13;4934609;28;20042;-68
2022/08/05 02:21:15;;;;;;;0.00;0.00;;;;;;;18.22;100.00;101459.63;4942603;28;20137;-68
2022/08/05 02:23:43;;;;;;;0.00;0.00;;;;;;;18.39;100.00;101465.22;4928677;28;20032;-68
2022/08/05 02:26:09;;;;;;;0.00;0.00;;;;;;;18.37;100.00;101453.66;4936959;28;20031;-68
2022/08/05 02:28:39;;;;;;;0.00;0.00;;;;;;;18.30;100.00;101447.97;4934156;28;20027;-68
2022/08/05 02:31:06;;;;;;;0.63;0.10;;;;;;;18.29;100.00;101449.84;4932622;28;20032;-68
2022/08/05 02:33:36;;;;;;;0.00;0.00;;;;;;;18.16;100.00;101459.38;4934740;28;20018;-68
2022/08/05 02:36:02;;;;;;;0.00;0.00;;;;;;;17.98;100.00;101433.91;4935939;28;20040;-68
2022/08/05 02:38:28;;;;;;;0.00;0.00;;;;;;;18.13;100.00;101458.69;4934846;28;20031;-68
2022/08/05 02:40:54;;;;;;;0.00;0.00;;;;;;;18.11;100.00;101443.56;4945778;28;20038;-68
2022/08/05 02:43:20;;;;;;;0.00;0.00;;;;;;;18.11;100.00;101463.41;4936543;28;20049;-68
2022/08/05 02:45:46;;;;;;;0.00;0.00;;;;;;;18.12;100.00;101473.28;4924864;28;20045;-68
2022/08/05 02:48:12;;;;;;;0.00;0.00;;;;;;;18.17;100.00;101450.22;4930489;28;20036;-68
2022/08/05 02:50:40;;;;;;;0.00;0.00;;;;;;;18.14;100.00;101451.41;4929952;28;20065;-68
2022/08/05 02:53:05;;;;;;;0.00;0.00;;;;;;;18.10;100.00;101458.16;4930638;28;20117;-68
2022/08/05 02:55:31;;;;;;;0.03;0.03;;;;;;;18.13;100.00;101483.13;4933676;28;20097;-71
2022/08/05 02:57:57;;;;;;;0.00;0.00;;;;;;;18.08;100.00;101471.88;4940932;28;20067;-71
2022/08/05 03:00:23;;;;;;;0.00;0.00;;;;;;;18.18;100.00;101490.81;4931311;28;20075;-71
2022/08/05 03:02:49;;;;;;;0.00;0.00;;;;;;;18.19;100.00;101488.97;4942495;28;20039;-71
2022/08/05 03:05:15;;;;;;;0.00;0.00;;;;;;;18.13;100.00;101474.16;4931725;28;20058;-71
2022/08/05 03:07:40;;;;;;;0.00;0.00;;;;;;;18.12;100.00;101481.44;4931870;28;20039;-71
2022/08/05 03:10:06;;;;;;;0.00;0.00;;;;;;;18.10;100.00;101478.00;4941209;28;20430;-71
2022/08/05 03:12:33;;;;;;;0.00;0.00;;;;;;;18.16;100.00;101468.38;4933178;28;20027;-71
2022/08/05 03:14:59;;;;;;;0.00;0.00;;;;;;;17.97;100.00;101431.31;4932616;28;20101;-68
2022/08/05 03:17:25;;;;;;;0.00;0.00;;;;;;;18.19;100.00;101448.22;4941034;28;20144;-68
2022/08/05 03:19:50;;;;;;;0.00;0.00;;;;;;;18.14;100.00;101435.09;4931974;28;20047;-68
2022/08/05 03:22:15;;;;;;;0.00;0.00;;;;;;;18.08;100.00;101419.41;4933897;28;20057;-68
2022/08/05 03:24:43;;;;;;;0.03;0.03;;;;;;;18.10;100.00;101428.25;4930486;28;20056;-68
2022/08/05 03:27:09;;;;;;;0.00;0.00;;;;;;;18.16;100.00;101430.34;4929621;28;20397;-68
2022/08/05 03:29:35;;;;;;;0.05;0.05;;;;;;;17.98;100.00;101406.75;4933792;28;20062;-71
2022/08/05 03:32:00;;;;;;;0.00;0.00;;;;;;;18.13;100.00;101439.66;4934374;28;20109;-71
2022/08/05 03:34:26;;;;;;;0.00;0.00;;;;;;;18.11;100.00;101447.13;4939523;28;20562;-71
2022/08/05 03:36:51;;;;;;;0.00;0.00;;;;;;;18.06;100.00;101449.44;4937883;28;20474;-71
2022/08/05 03:39:17;;;;;;;0.00;0.00;;;;;;;18.06;100.00;101460.31;4935441;28;20023;-71
2022/08/05 03:41:42;;;;;;;0.00;0.00;;;;;;;18.09;100.00;101449.13;4938363;28;20038;-71
2022/08/05 03:44:07;;;;;;;0.00;0.00;;;;;;;18.09;100.00;101449.13;4938526;28;20075;-71
2022/08/05 03:46:33;;;;;;;0.00;0.00;;;;;;;18.09;100.00;101454.56;4933413;28;20054;-71
2022/08/05 03:48:58;;;;;;;0.00;0.00;;;;;;;18.06;100.00;101456.75;4931569;28;20062;-71
2022/08/05 03:51:31;;;;;;;0.00;0.00;;;;;;;18.02;100.00;101464.31;4932219;28;20031;-71
2022/08/05 03:54:07;;;;;;;0.10;0.10;;;;;;;17.98;100.00;101471.06;4935388;28;20031;-70
2022/08/05 03:56:38;;;;;;;0.00;0.00;;;;;;;18.02;100.00;101471.63;4943730;28;20039;-71
2022/08/05 03:59:08;;;;;;;0.00;0.00;;;;;;;18.01;100.00;101478.06;4932117;28;20494;-68
2022/08/05 04:01:36;;;;;;;0.00;0.00;;;;;;;17.96;100.00;101460.34;4931574;28;20035;-68
2022/08/05 04:04:02;;;;;;;0.00;0.00;;;;;;;17.86;100.00;101448.69;4927619;28;20027;-68
2022/08/05 04:06:28;;;;;;;0.00;0.00;;;;;;;17.87;100.00;101463.13;4942260;28;20078;-68
2022/08/05 04:08:53;;;;;;;0.00;0.00;;;;;;;17.80;100.00;101439.28;4929302;28;20028;-68
2022/08/05 04:11:19;;;;;;;0.10;0.10;;;;;;;17.89;100.00;101450.25;4927531;28;20038;-68
2022/08/05 04:13:44;;;;;;;0.00;0.00;;;;;;;17.82;100.00;101444.56;4940476;28;20092;-68
2022/08/05 04:16:11;;;;;;;0.00;0.00;;;;;;;17.69;100.00;101459.34;4938396;28;20324;-68
2022/08/05 04:18:37;;;;;;;0.00;0.00;;;;;;;17.61;100.00;101453.81;4933710;28;20031;-68
2022/08/05 04:21:02;;;;;;;0.05;0.05;;;;;;;17.69;100.00;101448.50;4932193;28;20031;-67
2022/08/05 04:23:28;;;;;;;0.00;0.00;;;;;;;17.73;100.00;101465.34;4934575;28;20027;-67
2022/08/05 04:25:53;;;;;;;0.00;0.00;;;;;;;17.77;100.00;101458.59;4933769;28;20043;-67
2022/08/05 04:28:19;;;;;;;0.00;0.00;;;;;;;17.75;100.00;101460.59;4937393;28;20039;-67
2022/08/05 04:30:46;;;;;;;0.00;0.00;;;;;;;17.82;100.00;101460.88;4932716;28;20031;-67
2022/08/05 04:33:12;;;;;;;0.00;0.00;;;;;;;17.76;100.00;101462.31;4935354;28;20035;-68
2022/08/05 04:35:37;;;;;;;0.00;0.00;;;;;;;17.66;100.00;101462.38;4934657;28;20030;-70
2022/08/05 04:38:03;;;;;;;0.00;0.00;;;;;;;17.78;100.00;101483.91;4931231;28;20479;-70
2022/08/05 04:40:28;;;;;;;0.00;0.00;;;;;;;17.78;100.00;101482.03;4931158;28;20066;-70
2022/08/05 04:42:53;;;;;;;0.00;0.00;;;;;;;17.78;100.00;101486.63;4936354;28;20466;-70
2022/08/05 04:45:19;;;;;;;0.00;0.00;;;;;;;17.78;100.00;101495.59;4937737;28;20066;-70
2022/08/05 04:47:44;;;;;;;0.00;0.00;;;;;;;17.77;100.00;101501.19;4936049;28;20024;-70
2022/08/05 04:50:10;;;;;;;0.00;0.00;;;;;;;17.79;100.00;101500.03;4931942;28;20040;-70
2022/08/05 04:52:35;;;;;;;0.00;0.00;;;;;;;17.83;100.00;101500.59;4935732;28;20054;-70
2022/08/05 04:55:00;;;;;;;0.00;0.00;;;;;;;17.73;100.00;101497.94;4935515;28;20078;-70
2022/08/05 04:57:26;;;;;;;0.00;0.00;;;;;;;17.82;100.00;101507.03;4932583;28;20110;-70
2022/08/05 04:59:51;;;;;;;0.00;0.00;;;;;;;17.87;100.00;101502.03;4935012;28;21607;-70
2022/08/05 05:02:16;;;;;;;0.00;0.00;;;;;;;17.83;100.00;101497.88;4936476;28;20102;-68
2022/08/05 05:04:42;;;;;;;0.00;0.00;;;;;;;17.83;100.00;101497.88;4934289;28;20031;-68
2022/08/05 05:07:07;;;;;;;0.00;0.00;;;;;;;17.81;100.00;101492.59;4934919;28;20122;-68
2022/08/05 05:09:32;;;;;;;0.00;0.00;;;;;;;17.79;100.00;101489.16;4934635;28;20178;-68
2022/08/05 05:11:58;;;;;;;0.00;0.00;;;;;;;17.82;100.00;101494.31;4927075;28;20038;-68
2022/08/05 05:14:23;;;;;;;0.00;0.00;;;;;;;17.82;100.00;101493.47;4935816;28;20482;-68
2022/08/05 05:16:48;;;;;;;0.00;0.00;;;;;;;17.78;100.00;101489.34;4935735;28;20427;-70
2022/08/05 05:19:14;;;;;;;0.00;0.00;;;;;;;17.90;100.00;101492.69;4933375;28;20039;-70
2022/08/05 05:21:39;;;;;;;0.00;0.00;;;;;;;17.93;100.00;101490.53;4936743;28;20417;-69
2022/08/05 05:24:05;;;;;;;0.00;0.00;;;;;;;17.98;100.00;101484.66;4934141;28;20147;-73
2022/08/05 05:26:30;;;;;;;0.00;0.00;;;;;;;18.05;100.00;101483.03;4935706;28;20027;-71
2022/08/05 05:28:55;;;;;;;0.00;0.00;;;;;;;18.19;100.00;101480.81;4935991;28;20202;-71
2022/08/05 05:31:21;;;;;;;0.00;0.00;;;;;;;18.21;100.00;101482.38;4931851;28;20028;-70
2022/08/05 05:33:46;;;;;;;0.00;0.00;;;;;;;18.29;100.00;101489.75;4936698;28;20035;-69
2022/08/05 05:36:11;;;;;;;0.00;0.00;;;;;;;18.35;100.00;101483.69;4929259;28;20039;-69
2022/08/05 05:38:36;;;;;;;0.08;0.08;;;;;;;18.42;100.00;101494.78;4941625;28;20094;-69
2022/08/05 05:41:02;;;;;;;0.00;0.00;;;;;;;18.42;100.00;101492.06;4955416;28;20117;-69
2022/08/05 05:43:27;;;;;;;0.10;0.10;;;;;;;18.47;100.00;101494.34;4939761;28;20071;-69
2022/08/05 05:45:53;;;;;;;0.00;0.00;;;;;;;18.28;100.00;101482.59;4932261;29;20102;-69
2022/08/05 05:48:18;;;;;;;0.00;0.00;;;;;;;18.43;100.00;101518.25;4944127;28;20261;-69
2022/08/05 05:50:44;;;;;;;0.00;0.00;;;;;;;18.43;100.00;101518.25;4947760;28;20062;-69
2022/08/05 05:53:10;;;;;;;0.00;0.00;;;;;;;18.30;100.00;101513.19;4945986;28;20055;-68
2022/08/05 05:55:35;;;;;;;0.03;0.03;;;;;;;18.38;100.00;101502.41;4948245;28;20070;-69
2022/08/05 05:58:01;;;;;;;0.00;0.00;;;;;;;18.34;100.00;101516.47;4941904;28;20125;-69
2022/08/05 06:00:26;;;;;;;0.00;0.00;;;;;;;18.30;100.00;101507.75;4947332;28;20133;-69
2022/08/05 06:02:51;;;;;;;0.00;0.00;;;;;;;18.31;100.00;101516.78;4949900;28;20502;-69
2022/08/05 06:05:17;;;;;;;0.00;0.00;;;;;;;18.34;100.00;101525.47;4948425;28;20039;-69
2022/08/05 06:07:44;;;;;;;0.00;0.00;;;;;;;18.32;100.00;101522.06;4947284;28;20031;-69
2022/08/05 06:10:09;;;;;;;0.00;0.00;;;;;;;18.19;100.00;101489.81;4959678;28;20102;-69
2022/08/05 06:12:36;;;;;;;0.00;0.00;;;;;;;18.40;100.00;101524.84;4938967;28;20487;-69
2022/08/05 06:15:02;;;;;;;0.00;0.00;;;;;;;18.41;100.00;101523.84;4934156;28;20072;-69
2022/08/05 06:17:28;;;;;;;0.10;0.10;;;;;;;18.38;100.00;101521.44;4946198;28;20130;-69
2022/08/05 06:19:53;;;;;;;0.00;0.00;;;;;;;18.36;100.00;101518.03;4953156;28;20078;-69
2022/08/05 06:22:23;;;;;;;0.03;0.03;;;;;;;18.37;100.00;101529.75;4938758;28;20067;-69
2022/08/05 06:24:48;;;;;;;0.00;0.00;;;;;;;18.35;99.82;101529.06;4944222;28;20019;-69
2022/08/05 06:27:14;;;;;;;0.00;0.00;;;;;;;18.35;100.00;101535.34;4945189;28;20082;-69
2022/08/05 06:29:39;;;;;;;0.00;0.00;;;;;;;18.38;100.00;101532.31;4943646;28;20038;-69
2022/08/05 06:32:04;;;;;;;0.00;0.00;;;;;;;18.31;100.00;101520.34;4934975;28;20031;-69
2022/08/05 06:34:30;;;;;;;0.00;0.00;;;;;;;18.39;100.00;101541.34;4942056;28;20035;-68
2022/08/05 06:36:55;;;;;;;0.00;0.00;;;;;;;18.42;100.00;101546.44;4942360;28;20493;-69
2022/08/05 06:39:20;;;;;;;0.00;0.00;;;;;;;18.44;98.31;101547.16;4957855;28;20461;-68
2022/08/05 06:41:46;;;;;;;0.00;0.00;;;;;;;18.49;99.29;101550.25;4940761;28;20574;-69
2022/08/05 06:44:11;;;;;;;0.00;0.00;;;;;;;18.47;99.33;101546.00;4945292;28;20439;-68
2022/08/05 06:46:36;;;;;;;0.08;0.08;;;;;;;18.51;99.31;101541.97;4939807;28;20542;-68
2022/08/05 06:49:02;;;;;;;0.00;0.00;;;;;;;18.61;99.41;101542.72;4950159;28;20406;-69
2022/08/05 06:51:27;;;;;;;0.00;0.00;;;;;;;18.68;99.31;101545.66;4945763;28;20035;-68
2022/08/05 06:53:53;;;;;;;0.00;0.00;;;;;;;18.73;98.41;101552.38;4938745;28;20529;-68
2022/08/05 06:56:18;;;;;;;0.00;0.00;;;;;;;18.62;97.91;101530.84;4952207;28;20085;-69
2022/08/05 06:58:43;;;;;;;0.00;0.00;;;;;;;18.84;96.73;101564.88;4938026;28;20478;-69
2022/08/05 07:01:09;;;;;;;0.00;0.00;;;;;;;18.91;96.77;101569.69;4944760;28;20027;-68
2022/08/05 07:03:34;;;;;;;0.00;0.00;;;;;;;18.95;96.60;101566.53;4942764;28;20027;-69
2022/08/05 07:06:01;;;;;;;0.00;0.00;;;;;;;18.99;97.20;101570.66;4946342;28;20063;-68
2022/08/05 07:08:27;;;;;;;0.00;0.00;;;;;;;19.06;96.73;101568.16;4939515;28;20607;-69
2022/08/05 07:10:53;;;;;;;0.00;0.00;;;;;;;19.13;95.92;101573.81;4943431;28;20031;-68
2022/08/05 07:18:46;;;;;;;;;;;;;;;19.07;93.24;101585.34;4943247;28;20053;-68
2022/08/05 07:21:11;;;;;;;0.10;0.10;;;;;;;19.02;95.67;101564.03;4943838;28;19918;-69
2022/08/05 07:23:36;;;;;;;0.00;0.00;;;;;;;19.25;96.00;101578.00;4940896;28;20334;-68
2022/08/05 07:26:03;;;;;;;0.00;0.00;;;;;;;19.37;94.46;101578.59;4943608;28;20038;-68
2022/08/05 07:28:28;;;;;;;0.00;0.00;;;;;;;19.42;94.81;101583.53;4946420;28;20212;-69
2022/08/05 07:30:53;;;;;;;0.00;0.00;;;;;;;19.55;91.82;101594.00;4947556;28;20195;-69
2022/08/05 07:33:20;;;;;;;0.00;0.00;;;;;;;19.60;92.22;101594.38;4939192;28;20678;-69
2022/08/05 07:35:46;;;;;;;0.00;0.00;;;;;;;19.76;91.80;101601.81;4940368;28;20390;-67
2022/08/05 07:38:12;;;;;;;0.00;0.00;;;;;;;19.82;89.39;101594.84;4942344;28;20039;-68
2022/08/05 07:40:37;;;;;;;0.00;0.00;;;;;;;19.95;88.70;101598.03;4953169;28;20035;-67
2022/08/05 07:43:03;;;;;;;0.00;0.00;;;;;;;19.90;87.13;101603.94;4945191;28;20482;-67
2022/08/05 07:45:28;;;;;;;0.00;0.00;;;;;;;19.94;87.68;101604.50;4947751;28;20027;-67
2022/08/05 07:47:53;;;;;;;0.00;0.00;;;;;;;20.02;87.22;101609.13;4946443;28;20143;-67
2022/08/05 07:50:19;;;;;;;0.00;0.00;;;;;;;20.03;86.70;101605.38;4944764;28;20036;-67
2022/08/05 07:52:45;;;;;;;0.00;0.00;;;;;;;20.16;85.42;101616.66;4947739;28;20028;-68
2022/08/05 07:55:10;;;;;;;0.00;0.00;;;;;;;20.27;84.50;101609.22;4953618;28;20023;-68
2022/08/05 07:57:35;;;;;;;0.00;0.00;;;;;;;20.31;85.70;101614.16;4946552;28;20041;-68
2022/08/05 08:00:03;;;;;;;0.00;0.00;;;;;;;20.47;83.13;101604.34;4939579;28;20110;-68
2022/08/05 08:02:29;;;;;;;0.00;0.00;;;;;;;20.49;83.15;101615.94;4950811;28;20074;-67
2022/08/05 08:04:54;;;;;;;0.00;0.00;;;;;;;20.50;80.95;101613.03;4948582;28;20026;-68
2022/08/05 08:07:20;;;;;;;0.00;0.00;;;;;;;20.67;79.95;101610.31;4944269;28;20035;-69
2022/08/05 08:09:46;;;;;;;0.00;0.00;;;;;;;20.78;76.92;101612.78;4941210;28;20035;-69
2022/08/05 08:12:14;;;;;;;0.00;0.00;;;;;;;21.00;76.61;101612.28;4949364;28;20042;-68
2022/08/05 08:14:41;;;;;;;0.00;0.00;;;;;;;21.14;76.71;101619.78;4941766;28;20027;-68
2022/08/05 08:17:12;;;;;;;0.00;0.00;;;;;;;20.93;75.34;101626.63;4940200;28;20035;-69
2022/08/05 08:19:39;;;;;;;0.00;0.00;;;;;;;20.93;76.73;101628.47;4945254;28;20038;-68
2022/08/05 08:22:06;;;;;;;0.00;0.00;;;;;;;21.06;76.53;101607.00;4946347;28;20352;-68
2022/08/05 08:24:31;;;;;;;0.00;0.00;;;;;;;21.23;75.78;101628.81;4952613;28;20034;-69
2022/08/05 08:26:57;;;;;;;0.00;0.00;;;;;;;21.28;75.72;101638.25;4934951;28;20031;-69
2022/08/05 08:29:22;;;;;;;0.00;0.00;;;;;;;21.39;72.79;101637.03;4947625;28;20035;-68
2022/08/05 08:31:48;;;;;;;0.00;0.00;;;;;;;21.37;73.06;101647.28;4940805;28;20035;-68
2022/08/05 08:34:13;;;;;;;0.00;0.00;;;;;;;21.43;73.66;101643.88;4944483;28;20043;-69
2022/08/05 08:36:39;;;;;;;0.00;0.00;;;;;;;21.55;73.42;101647.09;4943970;28;20093;-68
2022/08/05 08:39:04;;;;;;;0.00;0.00;;;;;;;21.53;73.66;101648.28;4943354;28;20111;-67
2022/08/05 08:41:33;;;;;;;0.00;0.00;;;;;;;21.52;75.10;101650.16;4946394;28;20031;-68
2022/08/05 08:44:00;;;;;;;0.00;0.00;;;;;;;21.86;74.08;101651.81;4952207;28;20090;-68
2022/08/05 08:46:27;;;;;;;0.00;0.00;;;;;;;22.04;71.16;101667.16;4950220;28;20038;-69
2022/08/05 08:48:53;;;;;;;0.00;0.00;;;;;;;21.98;70.55;101665.97;4943110;28;20039;-68
2022/08/05 08:51:19;;;;;;;0.00;0.00;;;;;;;21.87;69.99;101678.13;4946169;28;20145;-68
2022/08/05 08:53:44;;;;;;;0.00;0.00;;;;;;;21.81;70.30;101677.97;4946514;28;20126;-68
2022/08/05 08:56:09;;;;;;;0.00;0.00;;;;;;;21.83;71.61;101671.34;4959166;28;20081;-68
2022/08/05 08:58:35;;;;;;;0.00;0.00;;;;;;;22.02;71.76;101667.31;4942418;28;20071;-68
2022/08/05 09:01:01;;;;;;;0.00;0.00;;;;;;;22.16;70.42;101676.69;4948271;28;20039;-68
2022/08/05 09:03:27;;;;;;;0.00;0.00;;;;;;;22.26;70.27;101675.63;4951077;28;20427;-68
2022/08/05 09:05:52;;;;;;;0.00;0.00;;;;;;;22.37;70.02;101679.88;4950267;28;20110;-68
2022/08/05 09:08:18;;;;;;;0.00;0.00;;;;;;;22.43;72.62;101680.03;4944388;28;20031;-68
2022/08/05 09:10:43;;;;;;;0.00;0.00;;;;;;;22.68;68.69;101690.00;4948336;28;20058;-68
2022/08/05 09:13:12;;;;;;;0.00;0.00;;;;;;;22.51;67.96;101679.16;4950921;28;20114;-68
2022/08/05 09:15:38;;;;;;;0.00;0.00;;;;;;;22.69;69.33;101695.28;4955431;28;20031;-68
2022/08/05 09:18:06;;;;;;;0.00;0.00;;;;;;;22.81;69.14;101701.22;4945303;28;20037;-69
2022/08/05 09:20:31;;;;;;;0.00;0.00;;;;;;;22.72;69.00;101694.09;4953384;28;20478;-68
2022/08/05 09:23:13;;;;;;;0.00;0.00;;;;;;;22.48;70.24;101701.41;4942825;28;20046;-68
2022/08/05 09:25:44;;;;;;;0.00;0.00;;;;;;;22.25;69.78;101696.66;4942686;28;20027;-69
2022/08/05 09:28:23;;;;;;;0.00;0.00;;;;;;;22.01;66.20;101714.00;4939697;28;20093;-70
2022/08/05 09:31:11;;;;;;;0.00;0.00;;;;;;;21.89;65.93;101710.78;4942801;28;20027;-69
2022/08/05 09:33:48;;;;;;;0.00;0.00;;;;;;;21.72;69.03;101710.78;4936998;28;20476;-70
2022/08/05 09:36:14;;;;;;;0.00;0.00;;;;;;;21.60;70.06;101694.88;4942136;28;20405;-69
2022/08/05 09:38:54;;;;;;;0.00;0.00;;;;;;;21.59;70.11;101718.63;4941805;28;20038;-69
2022/08/05 09:41:19;;;;;;;0.00;0.00;;;;;;;21.51;71.66;101726.81;4947051;28;20042;-69
2022/08/05 09:43:45;;;;;;;0.00;0.00;;;;;;;21.37;71.00;101725.63;4943097;28;20026;-69
2022/08/05 09:46:26;;;;;;;0.00;0.00;;;;;;;21.31;70.92;101713.50;4954114;28;20141;-68
2022/08/05 09:48:53;;;;;;;0.00;0.00;;;;;;;21.28;70.04;101725.63;4941296;28;20032;-69
2022/08/05 09:51:31;;;;;;;0.00;0.00;;;;;;;21.15;65.66;101718.97;4950154;28;20023;-69
2022/08/05 09:53:57;;;;;;;0.00;0.00;;;;;;;21.11;66.73;101724.75;4944261;28;20134;-69
2022/08/05 09:56:29;;;;;;;0.00;0.00;;;;;;;21.09;65.71;101729.53;4949383;28;20027;-69
2022/08/05 09:58:59;;;;;;;0.00;0.00;;;;;;;21.41;66.47;101732.44;4941146;28;20089;-69
2022/08/05 10:01:25;;;;;;;0.00;0.00;;;;;;;21.65;66.55;101719.84;4956774;28;20035;-69
2022/08/05 10:04:01;;;;;;;0.00;0.00;;;;;;;21.80;64.04;101730.94;4946452;28;20062;-69
2022/08/05 10:06:27;;;;;;;0.00;0.00;;;;;;;21.88;64.69;101730.94;4960045;28;20035;-68
2022/08/05 10:08:52;;;;;;;0.00;0.00;;;;;;;21.81;64.34;101736.25;4946613;28;20067;-69
2022/08/05 10:11:18;;;;;;;0.00;0.00;;;;;;;21.83;64.50;101733.31;4953763;28;20038;-69
2022/08/05 10:13:43;;;;;;;0.00;0.00;;;;;;;21.86;66.01;101733.81;4937145;28;20079;-69
2022/08/05 10:16:32;;;;;;;0.00;0.00;;;;;;;22.20;65.37;101740.09;4954411;28;20031;-68
2022/08/05 10:18:58;;;;;;;0.00;0.00;;;;;;;22.67;63.07;101737.56;4959235;28;20026;-68
2022/08/05 10:21:24;;;;;;;0.00;0.00;;;;;;;22.91;61.89;101739.31;4947215;28;20038;-68
2022/08/05 10:23:49;;;;;;;0.00;0.00;;;;;;;22.95;58.21;101737.09;4942789;28;20039;-69
2022/08/05 10:26:14;;;;;;;0.00;0.00;;;;;;;22.97;58.88;101735.88;4944210;28;20065;-69
2022/08/05 10:28:42;;;;;;;0.00;0.00;;;;;;;23.12;56.43;101741.41;4938517;28;20343;-68
2022/08/05 10:31:07;;;;;;;0.00;0.00;;;;;;;23.08;54.05;101748.28;4944309;28;20059;-69
2022/08/05 10:33:33;;;;;;;0.00;0.00;;;;;;;23.05;50.89;101743.16;4945245;28;21291;-70
2022/08/05 10:36:02;;;;;;;0.00;0.00;;;;;;;23.24;52.07;101752.84;4952850;28;20422;-69
2022/08/05 10:38:28;;;;;;;0.00;0.00;;;;;;;23.60;50.92;101748.63;4942206;28;20027;-68
2022/08/05 10:41:10;;;;;;;0.00;0.00;;;;;;;23.75;47.95;101756.91;4940685;28;20031;-71
2022/08/05 10:43:44;;;;;;;0.00;0.00;;;;;;;23.83;51.39;101751.34;4934167;28;20042;-68
2022/08/05 10:46:12;;;;;;;0.00;0.00;;;;;;;23.74;51.45;101756.06;4942748;28;20035;-69
2022/08/05 10:48:47;;;;;;;0.00;0.00;;;;;;;23.56;50.78;101761.88;4942994;28;20054;-69
2022/08/05 10:51:14;;;;;;;0.00;0.00;;;;;;;23.58;47.81;101765.28;4955443;28;20034;-68
2022/08/05 10:53:40;;;;;;;0.00;0.00;;;;;;;23.81;47.95;101768.00;4939186;28;20390;-68
2022/08/05 10:56:11;;;;;;;0.00;0.00;;;;;;;23.95;47.46;101774.56;4951059;28;20501;-68
2022/08/05 10:58:47;;;;;;;0.00;0.00;;;;;;;24.30;48.66;101764.97;4950657;28;20038;-70
2022/08/05 11:01:12;;;;;;;0.00;0.00;;;;;;;24.94;46.98;101769.03;4945493;28;20024;-69
2022/08/05 11:03:58;;;;;;;0.00;0.00;;;;;;;25.44;45.22;101778.28;4950176;28;20022;-69
2022/08/05 11:06:24;;;;;;;0.00;0.00;;;;;;;25.57;45.93;101782.19;4955693;28;20459;-68
2022/08/05 11:09:18;;;;;;;0.00;0.00;;;;;;;25.39;43.11;101777.13;4937801;28;20481;-68
2022/08/05 11:11:46;;;;;;;0.00;0.00;;;;;;;25.76;43.80;101780.66;4938020;28;20028;-69
2022/08/05 11:14:12;;;;;;;0.00;0.00;;;;;;;26.04;42.67;101780.69;4951226;28;20486;-68
2022/08/05 11:16:37;;;;;;;0.00;0.00;;;;;;;26.64;41.80;101780.22;4949964;28;20041;-69
2022/08/05 11:19:29;;;;;;;0.00;0.00;;;;;;;26.60;39.98;101789.13;4945624;28;20031;-69
2022/08/05 11:21:55;;;;;;;0.00;0.00;;;;;;;26.33;38.99;101787.06;4946264;28;20081;-70
2022/08/05 11:24:22;;;;;;;0.00;0.00;;;;;;;25.95;39.60;101792.88;4944092;28;20044;-71
2022/08/05 11:26:48;;;;;;;0.00;0.00;;;;;;;25.47;41.84;101788.00;4933147;28;20031;-71